sensor_id;sensor_type;location;lat;lon;timestamp;P1;durP1;ratioP1;P2;durP2;ratioP2
32108;SDS011;18624;50.042;8.436;2024-01-10T00:02:20;30.08;;;16.88;;
32108;SDS011;18624;50.042;8.436;2024-01-10T00:04:46;29.45;;;15.73;;
32108;SDS011;18624;50.042;8.436;2024-01-10T00:07:13;31.35;;;17.55;;
32108;SDS011;18624;50.042;8.436;2024-01-10T00:09:39;33.28;;;16.13;;
32108;SDS011;18624;50.042;8.436;2024-01-10T00:12:06;32.42;;;15.57;;
32108;SDS011;18624;50.042;8.436;2024-01-10T00:14:33;32.05;;;16.48;;
32108;SDS011;18624;50.042;8.436;2024-01-10T00:16:59;39.55;;;18.10;;
32108;SDS011;18624;50.042;8.436;2024-01-10T00:19:26;34.67;;;17.92;;
32108;SDS011;18624;50.042;8.436;2024-01-10T00:21:52;30.38;;;17.67;;
32108;SDS011;18624;50.042;8.436;2024-01-10T00:24:19;32.72;;;17.33;;
32108;SDS011;18624;50.042;8.436;2024-01-10T00:26:45;32.58;;;19.13;;
32108;SDS011;18624;50.042;8.436;2024-01-10T00:29:12;37.38;;;18.02;;
32108;SDS011;18624;50.042;8.436;2024-01-10T00:31:39;32.65;;;17.52;;
32108;SDS011;18624;50.042;8.436;2024-01-10T00:34:06;30.75;;;17.33;;
32108;SDS011;18624;50.042;8.436;2024-01-10T00:36:32;33.88;;;18.35;;
32108;SDS011;18624;50.042;8.436;2024-01-10T00:38:59;33.28;;;17.45;;
32108;SDS011;18624;50.042;8.436;2024-01-10T00:41:26;34.33;;;19.27;;
32108;SDS011;18624;50.042;8.436;2024-01-10T00:43:52;35.10;;;18.40;;
32108;SDS011;18624;50.042;8.436;2024-01-10T00:46:19;36.47;;;19.48;;
32108;SDS011;18624;50.042;8.436;2024-01-10T00:48:45;37.38;;;20.08;;
32108;SDS011;18624;50.042;8.436;2024-01-10T00:51:12;38.72;;;19.95;;
32108;SDS011;18624;50.042;8.436;2024-01-10T00:53:39;35.92;;;19.70;;
32108;SDS011;18624;50.042;8.436;2024-01-10T00:56:06;39.33;;;20.65;;
32108;SDS011;18624;50.042;8.436;2024-01-10T00:58:33;37.65;;;19.52;;
32108;SDS011;18624;50.042;8.436;2024-01-10T01:00:59;35.75;;;20.15;;
32108;SDS011;18624;50.042;8.436;2024-01-10T01:03:26;41.05;;;22.55;;
32108;SDS011;18624;50.042;8.436;2024-01-10T01:05:53;40.30;;;20.77;;
32108;SDS011;18624;50.042;8.436;2024-01-10T01:08:19;38.95;;;18.88;;
32108;SDS011;18624;50.042;8.436;2024-01-10T01:10:46;37.35;;;20.30;;
32108;SDS011;18624;50.042;8.436;2024-01-10T01:13:12;35.08;;;20.17;;
32108;SDS011;18624;50.042;8.436;2024-01-10T01:15:39;36.38;;;18.52;;
32108;SDS011;18624;50.042;8.436;2024-01-10T01:18:06;34.88;;;19.05;;
32108;SDS011;18624;50.042;8.436;2024-01-10T01:20:32;39.17;;;20.52;;
32108;SDS011;18624;50.042;8.436;2024-01-10T01:22:59;35.80;;;19.20;;
32108;SDS011;18624;50.042;8.436;2024-01-10T01:25:26;37.45;;;21.42;;
32108;SDS011;18624;50.042;8.436;2024-01-10T01:27:52;38.50;;;21.83;;
32108;SDS011;18624;50.042;8.436;2024-01-10T01:30:19;40.70;;;21.60;;
32108;SDS011;18624;50.042;8.436;2024-01-10T01:32:48;38.75;;;20.70;;
32108;SDS011;18624;50.042;8.436;2024-01-10T01:35:14;40.70;;;21.65;;
32108;SDS011;18624;50.042;8.436;2024-01-10T01:37:42;42.53;;;20.48;;
32108;SDS011;18624;50.042;8.436;2024-01-10T01:40:08;39.75;;;20.75;;
32108;SDS011;18624;50.042;8.436;2024-01-10T01:42:35;35.08;;;20.25;;
32108;SDS011;18624;50.042;8.436;2024-01-10T01:45:01;45.40;;;23.05;;
32108;SDS011;18624;50.042;8.436;2024-01-10T01:47:29;45.85;;;23.60;;
32108;SDS011;18624;50.042;8.436;2024-01-10T01:49:56;36.38;;;19.20;;
32108;SDS011;18624;50.042;8.436;2024-01-10T01:52:23;36.85;;;22.67;;
32108;SDS011;18624;50.042;8.436;2024-01-10T01:54:50;40.58;;;20.58;;
32108;SDS011;18624;50.042;8.436;2024-01-10T01:57:17;39.17;;;21.17;;
32108;SDS011;18624;50.042;8.436;2024-01-10T01:59:44;34.17;;;19.88;;
32108;SDS011;18624;50.042;8.436;2024-01-10T02:02:10;59.78;;;21.40;;
32108;SDS011;18624;50.042;8.436;2024-01-10T02:04:38;44.13;;;22.92;;
32108;SDS011;18624;50.042;8.436;2024-01-10T02:07:06;41.70;;;22.80;;
32108;SDS011;18624;50.042;8.436;2024-01-10T02:09:32;45.08;;;21.60;;
32108;SDS011;18624;50.042;8.436;2024-01-10T02:11:59;39.80;;;21.60;;
32108;SDS011;18624;50.042;8.436;2024-01-10T02:14:25;45.42;;;21.80;;
32108;SDS011;18624;50.042;8.436;2024-01-10T02:16:52;39.60;;;19.73;;
32108;SDS011;18624;50.042;8.436;2024-01-10T02:19:20;34.80;;;20.67;;
32108;SDS011;18624;50.042;8.436;2024-01-10T02:21:48;39.83;;;21.88;;
32108;SDS011;18624;50.042;8.436;2024-01-10T02:24:14;41.80;;;21.27;;
32108;SDS011;18624;50.042;8.436;2024-01-10T02:26:41;44.42;;;22.58;;
32108;SDS011;18624;50.042;8.436;2024-01-10T02:29:08;44.33;;;21.67;;
32108;SDS011;18624;50.042;8.436;2024-01-10T02:31:35;38.20;;;20.33;;
32108;SDS011;18624;50.042;8.436;2024-01-10T02:34:01;37.13;;;21.10;;
32108;SDS011;18624;50.042;8.436;2024-01-10T02:36:28;41.00;;;22.20;;
32108;SDS011;18624;50.042;8.436;2024-01-10T02:38:54;39.00;;;20.65;;
32108;SDS011;18624;50.042;8.436;2024-01-10T02:41:21;39.03;;;20.23;;
32108;SDS011;18624;50.042;8.436;2024-01-10T02:43:48;35.63;;;19.92;;
32108;SDS011;18624;50.042;8.436;2024-01-10T02:46:14;41.10;;;22.20;;
32108;SDS011;18624;50.042;8.436;2024-01-10T02:48:41;37.78;;;20.75;;
32108;SDS011;18624;50.042;8.436;2024-01-10T02:51:08;38.35;;;20.70;;
32108;SDS011;18624;50.042;8.436;2024-01-10T02:53:34;42.72;;;22.45;;
32108;SDS011;18624;50.042;8.436;2024-01-10T02:56:01;39.72;;;21.48;;
32108;SDS011;18624;50.042;8.436;2024-01-10T02:58:27;41.58;;;21.58;;
32108;SDS011;18624;50.042;8.436;2024-01-10T03:00:56;39.13;;;21.50;;
32108;SDS011;18624;50.042;8.436;2024-01-10T03:03:23;40.38;;;21.55;;
32108;SDS011;18624;50.042;8.436;2024-01-10T03:05:50;37.22;;;21.60;;
32108;SDS011;18624;50.042;8.436;2024-01-10T03:08:16;39.90;;;22.52;;
32108;SDS011;18624;50.042;8.436;2024-01-10T03:10:43;40.28;;;21.25;;
32108;SDS011;18624;50.042;8.436;2024-01-10T03:13:09;42.20;;;21.77;;
32108;SDS011;18624;50.042;8.436;2024-01-10T03:15:36;41.92;;;23.63;;
32108;SDS011;18624;50.042;8.436;2024-01-10T03:18:02;45.13;;;22.98;;
32108;SDS011;18624;50.042;8.436;2024-01-10T03:20:29;38.47;;;21.17;;
32108;SDS011;18624;50.042;8.436;2024-01-10T03:22:56;39.88;;;20.75;;
32108;SDS011;18624;50.042;8.436;2024-01-10T03:25:22;36.58;;;21.45;;
32108;SDS011;18624;50.042;8.436;2024-01-10T03:27:49;37.03;;;21.17;;
32108;SDS011;18624;50.042;8.436;2024-01-10T03:30:15;42.05;;;22.33;;
32108;SDS011;18624;50.042;8.436;2024-01-10T03:32:44;44.47;;;21.83;;
32108;SDS011;18624;50.042;8.436;2024-01-10T03:35:11;39.22;;;20.80;;
32108;SDS011;18624;50.042;8.436;2024-01-10T03:37:38;44.45;;;20.85;;
32108;SDS011;18624;50.042;8.436;2024-01-10T03:40:05;40.33;;;21.27;;
32108;SDS011;18624;50.042;8.436;2024-01-10T03:42:32;39.20;;;20.67;;
32108;SDS011;18624;50.042;8.436;2024-01-10T03:44:58;40.42;;;22.35;;
32108;SDS011;18624;50.042;8.436;2024-01-10T03:47:25;41.67;;;21.10;;
32108;SDS011;18624;50.042;8.436;2024-01-10T03:49:51;41.45;;;20.42;;
32108;SDS011;18624;50.042;8.436;2024-01-10T03:52:18;38.03;;;21.42;;
32108;SDS011;18624;50.042;8.436;2024-01-10T03:54:45;37.70;;;20.75;;
32108;SDS011;18624;50.042;8.436;2024-01-10T03:57:12;40.90;;;21.95;;
32108;SDS011;18624;50.042;8.436;2024-01-10T03:59:38;40.70;;;21.80;;
32108;SDS011;18624;50.042;8.436;2024-01-10T04:02:05;41.30;;;22.20;;
32108;SDS011;18624;50.042;8.436;2024-01-10T04:04:31;34.50;;;21.33;;
32108;SDS011;18624;50.042;8.436;2024-01-10T04:06:58;38.30;;;21.17;;
32108;SDS011;18624;50.042;8.436;2024-01-10T04:09:24;41.90;;;21.02;;
32108;SDS011;18624;50.042;8.436;2024-01-10T04:11:51;42.42;;;22.20;;
32108;SDS011;18624;50.042;8.436;2024-01-10T04:14:17;39.03;;;21.73;;
32108;SDS011;18624;50.042;8.436;2024-01-10T04:16:44;41.13;;;21.15;;
32108;SDS011;18624;50.042;8.436;2024-01-10T04:19:10;37.45;;;20.95;;
32108;SDS011;18624;50.042;8.436;2024-01-10T04:21:37;38.08;;;21.10;;
32108;SDS011;18624;50.042;8.436;2024-01-10T04:24:04;34.22;;;18.98;;
32108;SDS011;18624;50.042;8.436;2024-01-10T04:26:31;43.03;;;21.50;;
32108;SDS011;18624;50.042;8.436;2024-01-10T04:28:58;37.25;;;20.63;;
32108;SDS011;18624;50.042;8.436;2024-01-10T04:31:25;42.60;;;25.13;;
32108;SDS011;18624;50.042;8.436;2024-01-10T04:33:51;42.33;;;23.65;;
32108;SDS011;18624;50.042;8.436;2024-01-10T04:36:18;42.78;;;20.50;;
32108;SDS011;18624;50.042;8.436;2024-01-10T04:38:44;41.38;;;21.17;;
32108;SDS011;18624;50.042;8.436;2024-01-10T04:41:11;42.92;;;22.70;;
32108;SDS011;18624;50.042;8.436;2024-01-10T04:43:38;43.33;;;21.42;;
32108;SDS011;18624;50.042;8.436;2024-01-10T04:46:04;39.90;;;21.58;;
32108;SDS011;18624;50.042;8.436;2024-01-10T04:48:31;37.35;;;20.48;;
32108;SDS011;18624;50.042;8.436;2024-01-10T04:50:57;41.53;;;22.83;;
32108;SDS011;18624;50.042;8.436;2024-01-10T04:53:24;43.53;;;22.00;;
32108;SDS011;18624;50.042;8.436;2024-01-10T04:55:51;40.72;;;20.77;;
32108;SDS011;18624;50.042;8.436;2024-01-10T04:58:17;40.78;;;22.10;;
32108;SDS011;18624;50.042;8.436;2024-01-10T05:00:44;40.80;;;20.92;;
32108;SDS011;18624;50.042;8.436;2024-01-10T05:03:11;39.50;;;22.15;;
32108;SDS011;18624;50.042;8.436;2024-01-10T05:05:38;43.72;;;20.85;;
32108;SDS011;18624;50.042;8.436;2024-01-10T05:08:04;40.85;;;20.67;;
32108;SDS011;18624;50.042;8.436;2024-01-10T05:10:32;44.13;;;22.15;;
32108;SDS011;18624;50.042;8.436;2024-01-10T05:12:58;39.47;;;21.95;;
32108;SDS011;18624;50.042;8.436;2024-01-10T05:15:25;41.35;;;21.40;;
32108;SDS011;18624;50.042;8.436;2024-01-10T05:17:51;42.47;;;22.23;;
32108;SDS011;18624;50.042;8.436;2024-01-10T05:20:18;39.63;;;21.75;;
32108;SDS011;18624;50.042;8.436;2024-01-10T05:22:45;41.13;;;22.00;;
32108;SDS011;18624;50.042;8.436;2024-01-10T05:25:11;41.38;;;20.52;;
32108;SDS011;18624;50.042;8.436;2024-01-10T05:27:38;39.00;;;20.30;;
32108;SDS011;18624;50.042;8.436;2024-01-10T05:30:05;42.95;;;22.23;;
32108;SDS011;18624;50.042;8.436;2024-01-10T05:32:32;38.42;;;21.35;;
32108;SDS011;18624;50.042;8.436;2024-01-10T05:34:59;40.00;;;21.23;;
32108;SDS011;18624;50.042;8.436;2024-01-10T05:37:25;36.90;;;22.08;;
32108;SDS011;18624;50.042;8.436;2024-01-10T05:39:52;45.92;;;24.45;;
32108;SDS011;18624;50.042;8.436;2024-01-10T05:42:18;38.90;;;21.65;;
32108;SDS011;18624;50.042;8.436;2024-01-10T05:44:45;44.08;;;23.48;;
32108;SDS011;18624;50.042;8.436;2024-01-10T05:47:12;40.30;;;20.55;;
32108;SDS011;18624;50.042;8.436;2024-01-10T05:49:38;42.22;;;21.13;;
32108;SDS011;18624;50.042;8.436;2024-01-10T05:52:05;40.13;;;21.67;;
32108;SDS011;18624;50.042;8.436;2024-01-10T05:54:32;44.75;;;21.40;;
32108;SDS011;18624;50.042;8.436;2024-01-10T05:56:58;35.20;;;19.85;;
32108;SDS011;18624;50.042;8.436;2024-01-10T05:59:27;37.50;;;22.10;;
32108;SDS011;18624;50.042;8.436;2024-01-10T06:01:55;40.33;;;21.33;;
32108;SDS011;18624;50.042;8.436;2024-01-10T06:04:22;42.22;;;21.90;;
32108;SDS011;18624;50.042;8.436;2024-01-10T06:06:49;41.40;;;22.88;;
32108;SDS011;18624;50.042;8.436;2024-01-10T06:09:15;38.15;;;21.38;;
32108;SDS011;18624;50.042;8.436;2024-01-10T06:11:48;34.40;;;21.08;;
32108;SDS011;18624;50.042;8.436;2024-01-10T06:14:15;44.28;;;24.50;;
32108;SDS011;18624;50.042;8.436;2024-01-10T06:16:42;39.35;;;21.73;;
32108;SDS011;18624;50.042;8.436;2024-01-10T06:19:10;40.35;;;20.58;;
32108;SDS011;18624;50.042;8.436;2024-01-10T06:21:37;37.83;;;22.67;;
32108;SDS011;18624;50.042;8.436;2024-01-10T06:24:04;37.17;;;21.05;;
32108;SDS011;18624;50.042;8.436;2024-01-10T06:26:31;41.75;;;21.45;;
32108;SDS011;18624;50.042;8.436;2024-01-10T06:28:57;42.55;;;22.48;;
32108;SDS011;18624;50.042;8.436;2024-01-10T06:31:24;39.35;;;21.75;;
32108;SDS011;18624;50.042;8.436;2024-01-10T06:33:50;42.22;;;23.17;;
32108;SDS011;18624;50.042;8.436;2024-01-10T06:36:17;41.05;;;22.02;;
32108;SDS011;18624;50.042;8.436;2024-01-10T06:38:44;41.78;;;24.25;;
32108;SDS011;18624;50.042;8.436;2024-01-10T06:41:10;38.28;;;21.15;;
32108;SDS011;18624;50.042;8.436;2024-01-10T06:43:41;38.35;;;20.77;;
32108;SDS011;18624;50.042;8.436;2024-01-10T06:46:07;43.35;;;22.27;;
32108;SDS011;18624;50.042;8.436;2024-01-10T06:48:34;34.38;;;19.60;;
32108;SDS011;18624;50.042;8.436;2024-01-10T06:51:02;42.08;;;20.75;;
32108;SDS011;18624;50.042;8.436;2024-01-10T06:53:29;33.55;;;20.10;;
32108;SDS011;18624;50.042;8.436;2024-01-10T06:55:56;37.00;;;19.58;;
32108;SDS011;18624;50.042;8.436;2024-01-10T06:58:22;34.90;;;20.52;;
32108;SDS011;18624;50.042;8.436;2024-01-10T07:00:49;36.38;;;21.77;;
32108;SDS011;18624;50.042;8.436;2024-01-10T07:03:16;35.83;;;19.75;;
32108;SDS011;18624;50.042;8.436;2024-01-10T07:05:44;40.72;;;22.17;;
32108;SDS011;18624;50.042;8.436;2024-01-10T07:08:11;37.47;;;21.60;;
32108;SDS011;18624;50.042;8.436;2024-01-10T07:10:37;37.30;;;21.60;;
32108;SDS011;18624;50.042;8.436;2024-01-10T07:13:04;39.65;;;20.23;;
32108;SDS011;18624;50.042;8.436;2024-01-10T07:15:31;43.60;;;21.90;;
32108;SDS011;18624;50.042;8.436;2024-01-10T07:17:57;37.45;;;20.35;;
32108;SDS011;18624;50.042;8.436;2024-01-10T07:20:24;44.50;;;21.55;;
32108;SDS011;18624;50.042;8.436;2024-01-10T07:22:51;41.33;;;21.95;;
32108;SDS011;18624;50.042;8.436;2024-01-10T07:25:17;39.83;;;21.10;;
32108;SDS011;18624;50.042;8.436;2024-01-10T07:27:44;40.78;;;22.10;;
32108;SDS011;18624;50.042;8.436;2024-01-10T07:30:10;44.55;;;23.15;;
32108;SDS011;18624;50.042;8.436;2024-01-10T07:32:44;42.65;;;23.77;;
32108;SDS011;18624;50.042;8.436;2024-01-10T07:35:12;40.10;;;21.50;;
32108;SDS011;18624;50.042;8.436;2024-01-10T07:37:42;40.42;;;21.40;;
32108;SDS011;18624;50.042;8.436;2024-01-10T07:40:09;36.42;;;20.73;;
32108;SDS011;18624;50.042;8.436;2024-01-10T07:42:37;37.78;;;20.70;;
32108;SDS011;18624;50.042;8.436;2024-01-10T07:45:04;44.30;;;23.27;;
32108;SDS011;18624;50.042;8.436;2024-01-10T07:47:31;40.85;;;22.63;;
32108;SDS011;18624;50.042;8.436;2024-01-10T07:50:00;43.40;;;21.45;;
32108;SDS011;18624;50.042;8.436;2024-01-10T07:52:27;37.78;;;22.05;;
32108;SDS011;18624;50.042;8.436;2024-01-10T07:54:54;39.70;;;23.30;;
32108;SDS011;18624;50.042;8.436;2024-01-10T07:57:20;38.53;;;22.02;;
32108;SDS011;18624;50.042;8.436;2024-01-10T07:59:47;44.67;;;22.80;;
32108;SDS011;18624;50.042;8.436;2024-01-10T08:02:13;39.45;;;21.15;;
32108;SDS011;18624;50.042;8.436;2024-01-10T08:04:40;42.08;;;21.23;;
32108;SDS011;18624;50.042;8.436;2024-01-10T08:07:07;45.70;;;22.95;;
32108;SDS011;18624;50.042;8.436;2024-01-10T08:09:34;43.25;;;23.10;;
32108;SDS011;18624;50.042;8.436;2024-01-10T08:12:00;40.65;;;23.83;;
32108;SDS011;18624;50.042;8.436;2024-01-10T08:14:27;39.78;;;21.80;;
32108;SDS011;18624;50.042;8.436;2024-01-10T08:16:54;42.42;;;22.67;;
32108;SDS011;18624;50.042;8.436;2024-01-10T08:19:24;38.88;;;22.33;;
32108;SDS011;18624;50.042;8.436;2024-01-10T08:21:53;45.25;;;23.80;;
32108;SDS011;18624;50.042;8.436;2024-01-10T08:24:20;44.03;;;23.30;;
32108;SDS011;18624;50.042;8.436;2024-01-10T08:26:48;45.72;;;23.63;;
32108;SDS011;18624;50.042;8.436;2024-01-10T08:29:21;44.58;;;21.95;;
32108;SDS011;18624;50.042;8.436;2024-01-10T08:31:48;41.97;;;21.20;;
32108;SDS011;18624;50.042;8.436;2024-01-10T08:34:14;41.55;;;21.48;;
32108;SDS011;18624;50.042;8.436;2024-01-10T08:36:41;40.28;;;22.15;;
32108;SDS011;18624;50.042;8.436;2024-01-10T08:39:07;40.55;;;21.85;;
32108;SDS011;18624;50.042;8.436;2024-01-10T08:41:34;41.70;;;21.88;;
32108;SDS011;18624;50.042;8.436;2024-01-10T08:44:03;44.58;;;23.27;;
32108;SDS011;18624;50.042;8.436;2024-01-10T08:46:29;38.83;;;22.23;;
32108;SDS011;18624;50.042;8.436;2024-01-10T08:48:56;38.80;;;21.75;;
32108;SDS011;18624;50.042;8.436;2024-01-10T08:51:22;42.85;;;22.10;;
32108;SDS011;18624;50.042;8.436;2024-01-10T08:53:49;44.00;;;22.65;;
32108;SDS011;18624;50.042;8.436;2024-01-10T08:56:15;42.33;;;21.20;;
32108;SDS011;18624;50.042;8.436;2024-01-10T08:58:43;40.95;;;20.45;;
32108;SDS011;18624;50.042;8.436;2024-01-10T09:01:15;38.22;;;20.65;;
32108;SDS011;18624;50.042;8.436;2024-01-10T09:04:33;38.25;;;21.77;;
32108;SDS011;18624;50.042;8.436;2024-01-10T09:07:03;38.53;;;21.08;;
32108;SDS011;18624;50.042;8.436;2024-01-10T09:09:30;43.10;;;20.83;;
32108;SDS011;18624;50.042;8.436;2024-01-10T09:11:57;44.50;;;23.30;;
32108;SDS011;18624;50.042;8.436;2024-01-10T09:14:24;43.28;;;24.13;;
32108;SDS011;18624;50.042;8.436;2024-01-10T09:16:50;41.72;;;23.08;;
32108;SDS011;18624;50.042;8.436;2024-01-10T09:19:18;42.30;;;24.08;;
32108;SDS011;18624;50.042;8.436;2024-01-10T09:21:45;42.22;;;24.75;;
32108;SDS011;18624;50.042;8.436;2024-01-10T09:24:12;40.05;;;23.05;;
32108;SDS011;18624;50.042;8.436;2024-01-10T09:26:54;37.78;;;21.92;;
32108;SDS011;18624;50.042;8.436;2024-01-10T09:29:20;40.33;;;24.05;;
32108;SDS011;18624;50.042;8.436;2024-01-10T09:31:47;42.47;;;23.08;;
32108;SDS011;18624;50.042;8.436;2024-01-10T09:34:14;39.28;;;23.02;;
32108;SDS011;18624;50.042;8.436;2024-01-10T09:36:41;38.42;;;23.65;;
32108;SDS011;18624;50.042;8.436;2024-01-10T09:39:07;41.88;;;23.40;;
32108;SDS011;18624;50.042;8.436;2024-01-10T09:41:40;45.72;;;24.38;;
32108;SDS011;18624;50.042;8.436;2024-01-10T09:44:13;48.15;;;24.70;;
32108;SDS011;18624;50.042;8.436;2024-01-10T09:46:41;45.17;;;24.35;;
32108;SDS011;18624;50.042;8.436;2024-01-10T09:49:12;50.45;;;24.65;;
32108;SDS011;18624;50.042;8.436;2024-01-10T09:51:38;41.80;;;22.73;;
32108;SDS011;18624;50.042;8.436;2024-01-10T09:54:05;46.13;;;24.17;;
32108;SDS011;18624;50.042;8.436;2024-01-10T09:56:32;38.67;;;23.00;;
32108;SDS011;18624;50.042;8.436;2024-01-10T09:58:58;41.25;;;23.60;;
32108;SDS011;18624;50.042;8.436;2024-01-10T10:01:27;42.42;;;22.63;;
32108;SDS011;18624;50.042;8.436;2024-01-10T10:03:54;43.83;;;24.20;;
32108;SDS011;18624;50.042;8.436;2024-01-10T10:06:22;43.25;;;23.58;;
32108;SDS011;18624;50.042;8.436;2024-01-10T10:08:49;39.78;;;22.63;;
32108;SDS011;18624;50.042;8.436;2024-01-10T10:11:16;43.03;;;23.65;;
32108;SDS011;18624;50.042;8.436;2024-01-10T10:13:43;50.05;;;24.40;;
32108;SDS011;18624;50.042;8.436;2024-01-10T10:16:09;38.13;;;21.30;;
32108;SDS011;18624;50.042;8.436;2024-01-10T10:18:38;42.50;;;24.27;;
32108;SDS011;18624;50.042;8.436;2024-01-10T10:23:36;41.63;;;22.52;;
32108;SDS011;18624;50.042;8.436;2024-01-10T10:26:14;44.95;;;25.13;;
32108;SDS011;18624;50.042;8.436;2024-01-10T10:28:48;44.65;;;24.27;;
32108;SDS011;18624;50.042;8.436;2024-01-10T10:31:18;40.17;;;22.23;;
32108;SDS011;18624;50.042;8.436;2024-01-10T10:33:45;40.55;;;24.35;;
32108;SDS011;18624;50.042;8.436;2024-01-10T10:36:14;44.97;;;24.55;;
32108;SDS011;18624;50.042;8.436;2024-01-10T10:38:41;46.40;;;24.50;;
32108;SDS011;18624;50.042;8.436;2024-01-10T10:41:08;40.53;;;23.38;;
32108;SDS011;18624;50.042;8.436;2024-01-10T10:43:39;39.42;;;23.50;;
32108;SDS011;18624;50.042;8.436;2024-01-10T10:46:08;51.92;;;24.40;;
32108;SDS011;18624;50.042;8.436;2024-01-10T10:48:36;39.13;;;21.65;;
32108;SDS011;18624;50.042;8.436;2024-01-10T10:53:37;40.28;;;22.08;;
32108;SDS011;18624;50.042;8.436;2024-01-10T10:56:05;47.45;;;23.30;;
32108;SDS011;18624;50.042;8.436;2024-01-10T10:58:34;43.63;;;24.05;;
32108;SDS011;18624;50.042;8.436;2024-01-10T11:01:05;42.90;;;23.25;;
32108;SDS011;18624;50.042;8.436;2024-01-10T11:03:37;40.95;;;22.65;;
32108;SDS011;18624;50.042;8.436;2024-01-10T11:06:06;42.03;;;24.38;;
32108;SDS011;18624;50.042;8.436;2024-01-10T11:08:35;44.78;;;23.73;;
32108;SDS011;18624;50.042;8.436;2024-01-10T11:14:48;42.40;;;23.67;;
32108;SDS011;18624;50.042;8.436;2024-01-10T11:25:23;43.58;;;24.13;;
32108;SDS011;18624;50.042;8.436;2024-01-10T11:27:53;42.78;;;23.80;;
32108;SDS011;18624;50.042;8.436;2024-01-10T11:41:30;42.38;;;22.70;;
32108;SDS011;18624;50.042;8.436;2024-01-10T11:46:46;41.47;;;23.10;;
32108;SDS011;18624;50.042;8.436;2024-01-10T11:49:14;41.85;;;22.40;;
32108;SDS011;18624;50.042;8.436;2024-01-10T11:51:46;31.17;;;17.40;;
32108;SDS011;18624;50.042;8.436;2024-01-10T11:57:07;43.17;;;21.80;;
32108;SDS011;18624;50.042;8.436;2024-01-10T11:59:57;44.05;;;23.52;;
32108;SDS011;18624;50.042;8.436;2024-01-10T12:02:26;45.42;;;25.45;;
32108;SDS011;18624;50.042;8.436;2024-01-10T12:04:54;40.00;;;21.60;;
32108;SDS011;18624;50.042;8.436;2024-01-10T12:07:22;42.47;;;23.10;;
32108;SDS011;18624;50.042;8.436;2024-01-10T12:09:51;39.53;;;21.80;;
32108;SDS011;18624;50.042;8.436;2024-01-10T12:12:17;42.72;;;22.85;;
32108;SDS011;18624;50.042;8.436;2024-01-10T12:14:44;41.53;;;24.10;;
32108;SDS011;18624;50.042;8.436;2024-01-10T12:17:12;42.38;;;22.77;;
32108;SDS011;18624;50.042;8.436;2024-01-10T12:19:38;38.80;;;21.63;;
32108;SDS011;18624;50.042;8.436;2024-01-10T12:22:05;40.58;;;22.95;;
32108;SDS011;18624;50.042;8.436;2024-01-10T12:24:34;41.05;;;21.45;;
32108;SDS011;18624;50.042;8.436;2024-01-10T12:27:09;42.35;;;23.58;;
32108;SDS011;18624;50.042;8.436;2024-01-10T12:29:36;36.78;;;20.95;;
32108;SDS011;18624;50.042;8.436;2024-01-10T12:32:03;42.40;;;22.10;;
32108;SDS011;18624;50.042;8.436;2024-01-10T12:34:30;44.88;;;23.25;;
32108;SDS011;18624;50.042;8.436;2024-01-10T12:36:56;46.72;;;23.25;;
32108;SDS011;18624;50.042;8.436;2024-01-10T12:39:23;43.75;;;23.63;;
32108;SDS011;18624;50.042;8.436;2024-01-10T12:41:51;39.92;;;23.15;;
32108;SDS011;18624;50.042;8.436;2024-01-10T12:44:18;42.05;;;21.10;;
32108;SDS011;18624;50.042;8.436;2024-01-10T12:46:51;41.88;;;22.35;;
32108;SDS011;18624;50.042;8.436;2024-01-10T12:49:19;41.55;;;22.38;;
32108;SDS011;18624;50.042;8.436;2024-01-10T12:51:48;35.88;;;19.30;;
32108;SDS011;18624;50.042;8.436;2024-01-10T12:54:15;40.95;;;21.92;;
32108;SDS011;18624;50.042;8.436;2024-01-10T12:56:43;36.75;;;21.52;;
32108;SDS011;18624;50.042;8.436;2024-01-10T12:59:10;40.13;;;22.60;;
32108;SDS011;18624;50.042;8.436;2024-01-10T13:01:37;37.90;;;21.58;;
32108;SDS011;18624;50.042;8.436;2024-01-10T13:04:04;37.47;;;21.88;;
32108;SDS011;18624;50.042;8.436;2024-01-10T13:06:34;34.00;;;20.20;;
32108;SDS011;18624;50.042;8.436;2024-01-10T13:09:01;39.75;;;22.40;;
32108;SDS011;18624;50.042;8.436;2024-01-10T13:11:28;37.80;;;21.33;;
32108;SDS011;18624;50.042;8.436;2024-01-10T13:13:56;35.42;;;19.60;;
32108;SDS011;18624;50.042;8.436;2024-01-10T13:16:23;35.55;;;21.33;;
32108;SDS011;18624;50.042;8.436;2024-01-10T13:18:50;35.63;;;19.45;;
32108;SDS011;18624;50.042;8.436;2024-01-10T13:21:19;35.58;;;19.13;;
32108;SDS011;18624;50.042;8.436;2024-01-10T13:23:46;38.70;;;22.00;;
32108;SDS011;18624;50.042;8.436;2024-01-10T13:26:13;38.53;;;20.65;;
32108;SDS011;18624;50.042;8.436;2024-01-10T13:28:39;35.35;;;19.90;;
32108;SDS011;18624;50.042;8.436;2024-01-10T13:31:07;35.83;;;21.25;;
32108;SDS011;18624;50.042;8.436;2024-01-10T13:33:34;37.33;;;19.42;;
32108;SDS011;18624;50.042;8.436;2024-01-10T13:36:04;32.30;;;19.67;;
32108;SDS011;18624;50.042;8.436;2024-01-10T13:38:31;35.60;;;18.20;;
32108;SDS011;18624;50.042;8.436;2024-01-10T13:40:57;31.45;;;18.70;;
32108;SDS011;18624;50.042;8.436;2024-01-10T13:43:24;34.72;;;18.92;;
32108;SDS011;18624;50.042;8.436;2024-01-10T13:45:51;33.42;;;18.70;;
32108;SDS011;18624;50.042;8.436;2024-01-10T13:48:18;31.95;;;18.02;;
32108;SDS011;18624;50.042;8.436;2024-01-10T13:50:45;34.03;;;18.45;;
32108;SDS011;18624;50.042;8.436;2024-01-10T13:53:12;37.60;;;20.10;;
32108;SDS011;18624;50.042;8.436;2024-01-10T13:55:39;30.92;;;17.42;;
32108;SDS011;18624;50.042;8.436;2024-01-10T13:58:06;35.78;;;19.67;;
32108;SDS011;18624;50.042;8.436;2024-01-10T14:00:34;35.28;;;18.65;;
32108;SDS011;18624;50.042;8.436;2024-01-10T14:03:01;37.53;;;18.13;;
32108;SDS011;18624;50.042;8.436;2024-01-10T14:05:27;29.67;;;16.88;;
32108;SDS011;18624;50.042;8.436;2024-01-10T14:07:54;33.95;;;18.33;;
32108;SDS011;18624;50.042;8.436;2024-01-10T14:10:22;32.70;;;19.38;;
32108;SDS011;18624;50.042;8.436;2024-01-10T14:12:49;31.88;;;18.52;;
32108;SDS011;18624;50.042;8.436;2024-01-10T14:15:15;31.00;;;18.50;;
32108;SDS011;18624;50.042;8.436;2024-01-10T14:17:42;34.35;;;19.88;;
32108;SDS011;18624;50.042;8.436;2024-01-10T14:20:08;35.42;;;18.50;;
32108;SDS011;18624;50.042;8.436;2024-01-10T14:22:36;35.17;;;19.20;;
32108;SDS011;18624;50.042;8.436;2024-01-10T14:25:03;35.58;;;18.73;;
32108;SDS011;18624;50.042;8.436;2024-01-10T14:27:32;30.65;;;18.90;;
32108;SDS011;18624;50.042;8.436;2024-01-10T14:29:58;31.40;;;18.13;;
32108;SDS011;18624;50.042;8.436;2024-01-10T14:32:26;35.17;;;19.75;;
32108;SDS011;18624;50.042;8.436;2024-01-10T14:34:53;34.63;;;20.35;;
32108;SDS011;18624;50.042;8.436;2024-01-10T14:37:20;33.97;;;20.35;;
32108;SDS011;18624;50.042;8.436;2024-01-10T14:39:47;38.70;;;18.15;;
32108;SDS011;18624;50.042;8.436;2024-01-10T14:42:14;30.70;;;19.45;;
32108;SDS011;18624;50.042;8.436;2024-01-10T14:44:40;31.02;;;17.58;;
32108;SDS011;18624;50.042;8.436;2024-01-10T14:47:07;33.60;;;17.73;;
32108;SDS011;18624;50.042;8.436;2024-01-10T14:49:38;30.13;;;17.73;;
32108;SDS011;18624;50.042;8.436;2024-01-10T14:52:05;31.70;;;17.83;;
32108;SDS011;18624;50.042;8.436;2024-01-10T14:54:33;28.75;;;17.15;;
32108;SDS011;18624;50.042;8.436;2024-01-10T14:57:00;27.73;;;17.42;;